createdAt,value
2023-09-12T00:01:21.721Z,20.80
2023-09-12T00:03:48.473Z,20.70
2023-09-12T00:06:15.289Z,20.50
2023-09-12T00:08:42.193Z,20.60
2023-09-12T00:11:13.488Z,20.60
2023-09-12T00:13:42.389Z,20.70
2023-09-12T00:16:13.057Z,20.70
2023-09-12T00:18:40.942Z,20.90
2023-09-12T00:21:08.226Z,20.90
2023-09-12T00:23:35.369Z,20.70
2023-09-12T00:26:02.130Z,20.70
2023-09-12T00:28:29.050Z,20.50
2023-09-12T00:30:55.989Z,20.60
2023-09-12T00:33:22.798Z,20.60
2023-09-12T00:35:49.483Z,20.60
2023-09-12T00:38:16.352Z,20.70
2023-09-12T00:40:43.266Z,20.70
2023-09-12T00:43:11.378Z,20.80
2023-09-12T00:45:38.902Z,20.60
2023-09-12T00:48:06.886Z,20.60
2023-09-12T00:50:34.851Z,20.70
2023-09-12T00:53:03.931Z,20.70
2023-09-12T00:55:33.928Z,20.80
2023-09-12T00:58:01.807Z,20.90
2023-09-12T01:00:28.716Z,20.90
2023-09-12T01:02:57.013Z,21.10
2023-09-12T01:05:23.914Z,21.10
2023-09-12T01:07:50.678Z,21.10
2023-09-12T01:10:17.398Z,21.10
2023-09-12T01:12:44.473Z,21.10
2023-09-12T01:15:14.675Z,21.20
2023-09-12T01:17:46.075Z,21.30
2023-09-12T01:20:20.414Z,21.30
2023-09-12T01:23:00.954Z,21.70
2023-09-12T01:25:39.581Z,21.70
2023-09-12T01:28:08.991Z,22.00
2023-09-12T01:30:36.720Z,22.10
2023-09-12T01:33:04.581Z,22.20
2023-09-12T01:35:31.282Z,22.30
2023-09-12T01:37:58.369Z,22.30
2023-09-12T01:40:39.654Z,22.40
2023-09-12T01:43:08.399Z,22.50
2023-09-12T01:45:36.829Z,22.60
2023-09-12T01:48:06.617Z,22.50
2023-09-12T01:50:34.393Z,22.40
2023-09-12T01:53:01.627Z,22.30
2023-09-12T01:55:28.565Z,22.00
2023-09-12T01:57:55.405Z,22.20
2023-09-12T02:00:22.662Z,22.10
2023-09-12T02:02:49.878Z,21.80
2023-09-12T02:05:19.834Z,21.60
2023-09-12T02:07:47.514Z,21.30
2023-09-12T02:10:14.966Z,21.20
2023-09-12T02:12:42.203Z,21.10
2023-09-12T02:15:09.454Z,21.00
2023-09-12T02:17:36.311Z,21.10
2023-09-12T02:20:05.985Z,21.10
2023-09-12T02:22:32.709Z,21.10
2023-09-12T02:24:59.541Z,21.20
2023-09-12T02:27:26.163Z,21.30
2023-09-12T02:29:52.832Z,21.40
2023-09-12T02:32:19.454Z,21.40
2023-09-12T02:34:46.107Z,21.50
2023-09-12T02:37:12.721Z,21.30
2023-09-12T02:39:39.409Z,21.30
2023-09-12T02:42:08.723Z,21.20
2023-09-12T02:44:35.391Z,21.20
2023-09-12T02:47:02.396Z,21.10
2023-09-12T02:49:29.146Z,21.10
2023-09-12T02:51:55.772Z,21.00
2023-09-12T02:54:22.484Z,21.00
2023-09-12T02:56:49.073Z,21.10
2023-09-12T02:59:15.688Z,21.10
2023-09-12T03:01:42.345Z,21.10
2023-09-12T03:04:09.047Z,21.10
2023-09-12T03:06:36.646Z,21.10
2023-09-12T03:09:04.230Z,21.10
2023-09-12T03:11:30.922Z,21.10
2023-09-12T03:13:57.495Z,21.20
2023-09-12T03:16:25.333Z,21.20
2023-09-12T03:18:52.274Z,21.20
2023-09-12T03:21:18.977Z,21.10
2023-09-12T03:23:45.618Z,21.00
2023-09-12T03:26:12.479Z,21.00
2023-09-12T03:28:39.241Z,21.00
2023-09-12T03:31:12.801Z,21.10
2023-09-12T03:33:40.066Z,21.10
2023-09-12T03:36:08.106Z,21.20
2023-09-12T03:38:35.194Z,21.20
2023-09-12T03:41:02.683Z,21.30
2023-09-12T03:43:29.506Z,21.40
2023-09-12T03:45:56.204Z,21.40
2023-09-12T03:48:22.972Z,21.50
2023-09-12T03:50:49.660Z,21.60
2023-09-12T03:53:17.050Z,21.60
2023-09-12T03:55:44.365Z,21.60
2023-09-12T03:58:11.037Z,21.60
2023-09-12T04:00:37.682Z,21.70
2023-09-12T04:03:05.002Z,21.70
2023-09-12T04:05:31.806Z,21.70
2023-09-12T04:07:58.581Z,21.80
2023-09-12T04:10:25.230Z,21.80
2023-09-12T04:12:51.800Z,21.80
2023-09-12T04:15:18.615Z,21.80
2023-09-12T04:17:45.265Z,21.80
2023-09-12T04:20:15.391Z,21.80
2023-09-12T04:25:26.652Z,21.80
2023-09-12T04:27:53.282Z,21.80
2023-09-12T04:30:19.918Z,22.00
2023-09-12T04:32:46.781Z,21.80
2023-09-12T04:35:13.441Z,21.70
2023-09-12T04:37:40.055Z,21.50
2023-09-12T04:40:08.659Z,21.40
2023-09-12T04:42:35.349Z,21.40
2023-09-12T04:45:01.995Z,21.40
2023-09-12T04:47:28.791Z,21.40
2023-09-12T04:49:55.524Z,21.40
2023-09-12T04:52:22.169Z,21.50
2023-09-12T04:54:48.869Z,21.50
2023-09-12T04:57:15.621Z,21.50
2023-09-12T04:59:42.603Z,21.50
2023-09-12T05:02:09.246Z,21.40
2023-09-12T05:04:35.932Z,21.30
2023-09-12T05:07:04.410Z,21.20
2023-09-12T05:09:31.115Z,21.30
2023-09-12T05:11:58.116Z,21.20
2023-09-12T05:14:24.953Z,21.10
2023-09-12T05:16:51.824Z,21.10
2023-09-12T05:19:18.511Z,21.00
2023-09-12T05:21:45.325Z,21.00
2023-09-12T05:24:12.296Z,21.10
2023-09-12T05:26:42.548Z,21.10
2023-09-12T05:29:10.683Z,21.30
2023-09-12T05:31:37.464Z,21.20
2023-09-12T05:34:04.203Z,21.30
2023-09-12T05:36:30.955Z,21.30
2023-09-12T05:39:00.429Z,21.40
2023-09-12T05:41:27.350Z,21.40
2023-09-12T05:43:53.922Z,21.40
2023-09-12T05:46:20.644Z,21.40
2023-09-12T05:48:47.412Z,21.40
2023-09-12T05:51:14.202Z,21.40
2023-09-12T05:53:40.868Z,21.50
2023-09-12T05:56:07.545Z,21.50
2023-09-12T05:58:35.380Z,21.50
2023-09-12T06:01:04.365Z,21.50
2023-09-12T06:03:31.036Z,21.50
2023-09-12T06:05:57.808Z,21.50
2023-09-12T06:08:25.124Z,21.50
2023-09-12T06:10:54.741Z,21.60
2023-09-12T06:13:21.703Z,21.60
2023-09-12T06:15:48.771Z,21.60
2023-09-12T06:18:15.574Z,21.60
2023-09-12T06:20:43.441Z,21.60
2023-09-12T06:23:11.166Z,21.70
2023-09-12T06:25:37.783Z,21.80
2023-09-12T06:28:04.943Z,21.80
2023-09-12T06:30:31.653Z,21.80
2023-09-12T06:32:58.327Z,21.90
2023-09-12T06:35:25.073Z,21.80
2023-09-12T06:37:51.657Z,21.80
2023-09-12T06:40:18.402Z,21.80
2023-09-12T06:42:45.151Z,21.70
2023-09-12T06:45:11.952Z,21.60
2023-09-12T06:47:38.954Z,21.60
2023-09-12T06:50:08.264Z,21.60
2023-09-12T06:52:37.074Z,21.70
2023-09-12T06:55:03.923Z,21.60
2023-09-12T06:57:31.174Z,21.50
2023-09-12T06:59:57.849Z,21.50
2023-09-12T07:02:24.601Z,21.40
2023-09-12T07:04:51.227Z,21.30
2023-09-12T07:07:17.842Z,21.20
2023-09-12T07:09:44.499Z,21.20
2023-09-12T07:12:11.280Z,21.10
2023-09-12T07:14:38.884Z,21.10
2023-09-12T07:17:07.253Z,21.10
2023-09-12T07:19:33.813Z,21.20
2023-09-12T07:22:00.441Z,21.10
2023-09-12T07:24:27.777Z,21.20
2023-09-12T07:26:54.796Z,21.30
2023-09-12T07:29:21.409Z,21.30
2023-09-12T07:31:48.836Z,21.40
2023-09-12T07:34:15.878Z,21.40
2023-09-12T07:36:42.489Z,21.40
2023-09-12T07:39:09.340Z,21.50
2023-09-12T07:41:35.957Z,21.50
2023-09-12T07:44:05.883Z,21.50
2023-09-12T07:46:32.696Z,21.60
2023-09-12T07:48:59.554Z,21.60
2023-09-12T07:51:26.301Z,21.70
2023-09-12T07:53:53.000Z,21.60
2023-09-12T07:56:22.092Z,21.70
2023-09-12T07:58:50.396Z,21.80
2023-09-12T08:01:17.092Z,21.90
2023-09-12T08:03:44.572Z,21.90
2023-09-12T08:06:11.596Z,22.00
2023-09-12T08:08:38.304Z,22.10
2023-09-12T08:11:05.546Z,22.20
2023-09-12T08:13:32.392Z,22.30
2023-09-12T08:16:00.145Z,22.30
2023-09-12T08:18:30.666Z,22.40
2023-09-12T08:20:57.747Z,22.60
2023-09-12T08:23:24.545Z,22.60
2023-09-12T08:25:51.205Z,22.60
2023-09-12T08:28:17.811Z,22.70
2023-09-12T08:30:48.418Z,22.60
2023-09-12T08:33:15.180Z,22.70
2023-09-12T08:35:42.015Z,22.80
2023-09-12T08:38:11.551Z,22.70
2023-09-12T08:40:38.846Z,22.70
2023-09-12T08:43:05.599Z,22.70
2023-09-12T08:45:32.440Z,22.70
2023-09-12T08:48:04.396Z,22.60
2023-09-12T08:50:34.081Z,22.70
2023-09-12T08:53:07.176Z,22.70
2023-09-12T08:55:36.480Z,22.80
2023-09-12T08:58:05.112Z,22.90
2023-09-12T09:00:35.213Z,22.90
2023-09-12T09:03:05.195Z,23.10
2023-09-12T09:05:33.555Z,23.30
2023-09-12T09:08:01.404Z,23.40
2023-09-12T09:10:49.629Z,23.30
2023-09-12T09:13:17.270Z,23.40
2023-09-12T09:15:44.370Z,23.60
2023-09-12T09:18:13.505Z,23.80
2023-09-12T09:20:41.935Z,23.60
2023-09-12T09:23:10.683Z,23.80
2023-09-12T09:25:41.256Z,23.80
2023-09-12T09:28:21.999Z,23.90
2023-09-12T09:30:52.195Z,24.10
2023-09-12T09:33:20.630Z,24.10
2023-09-12T09:35:48.755Z,24.10
2023-09-12T09:38:17.732Z,24.10
2023-09-12T09:40:45.851Z,24.10
2023-09-12T09:43:12.997Z,24.10
2023-09-12T09:45:47.717Z,24.30
2023-09-12T09:48:29.055Z,24.30
2023-09-12T09:51:03.558Z,24.30
2023-09-12T09:53:33.696Z,24.20
2023-09-12T09:56:16.252Z,23.90
2023-09-12T09:58:54.241Z,23.60
2023-09-12T10:01:28.577Z,23.40
2023-09-12T10:04:00.796Z,23.50
2023-09-12T10:06:28.712Z,23.50
2023-09-12T10:08:58.923Z,23.70
2023-09-12T10:11:29.139Z,23.50
2023-09-12T10:13:57.606Z,23.40
2023-09-12T10:16:30.345Z,23.30
2023-09-12T10:19:19.644Z,23.10
2023-09-12T10:22:10.810Z,23.30
2023-09-12T10:24:39.937Z,23.20
2023-09-12T10:27:09.675Z,23.10
2023-09-12T10:29:36.666Z,23.10
2023-09-12T10:32:03.806Z,23.10
2023-09-12T10:34:33.115Z,23.00
2023-09-12T10:37:06.864Z,23.00
2023-09-12T10:39:34.135Z,23.00
2023-09-12T10:42:04.908Z,23.00
2023-09-12T10:44:32.974Z,23.10
2023-09-12T10:46:59.915Z,23.20
2023-09-12T10:49:27.984Z,23.20
2023-09-12T10:51:55.132Z,23.20
2023-09-12T10:54:26.671Z,23.00
2023-09-12T10:57:14.817Z,22.70
2023-09-12T11:00:00.746Z,22.80
2023-09-12T11:02:28.428Z,22.60
2023-09-12T11:04:55.943Z,22.80
2023-09-12T11:07:37.856Z,22.90
2023-09-12T11:10:32.679Z,22.80
2023-09-12T11:13:00.514Z,23.00
2023-09-12T11:15:32.275Z,23.00
2023-09-12T11:18:05.835Z,23.20
2023-09-12T11:21:04.382Z,23.10
2023-09-12T11:23:32.690Z,23.30
2023-09-12T11:26:09.162Z,23.10
2023-09-12T11:28:36.160Z,23.00
2023-09-12T11:31:02.989Z,23.10
2023-09-12T11:33:30.686Z,23.00
2023-09-12T11:35:59.550Z,23.20
2023-09-12T11:38:31.890Z,23.30
2023-09-12T11:41:01.937Z,23.40
2023-09-12T11:43:29.509Z,23.50
2023-09-12T11:45:59.766Z,23.50
2023-09-12T11:48:26.671Z,23.60
2023-09-12T11:50:57.727Z,23.70
2023-09-12T11:53:27.843Z,23.60
2023-09-12T11:55:57.552Z,23.70
2023-09-12T11:58:26.397Z,23.70
2023-09-12T12:00:57.889Z,23.80
2023-09-12T12:03:28.065Z,23.80
2023-09-12T12:05:56.249Z,23.80
2023-09-12T12:08:31.758Z,23.80
2023-09-12T12:11:00.354Z,23.80
2023-09-12T12:13:28.944Z,23.90
2023-09-12T12:15:56.996Z,23.90
2023-09-12T12:18:23.744Z,23.90
2023-09-12T12:20:50.520Z,23.90
2023-09-12T12:23:17.193Z,24.00
2023-09-12T12:25:43.863Z,24.00
2023-09-12T12:28:10.538Z,24.00
2023-09-12T12:30:37.838Z,24.10
2023-09-12T12:34:20.578Z,24.00
2023-09-12T12:36:05.038Z,24.00
2023-09-12T12:38:39.538Z,24.10
2023-09-12T12:41:10.897Z,24.20
2023-09-12T12:43:41.595Z,24.10
2023-09-12T12:46:13.383Z,24.10
2023-09-12T12:48:45.080Z,24.20
2023-09-12T12:51:17.825Z,24.20
2023-09-12T12:53:53.673Z,24.10
2023-09-12T12:56:24.874Z,24.00
2023-09-12T12:59:06.031Z,24.00
2023-09-12T13:01:34.136Z,24.00
2023-09-12T13:04:01.216Z,24.00
2023-09-12T13:06:29.237Z,24.20
2023-09-12T13:08:58.167Z,24.20
2023-09-12T13:11:24.730Z,24.30
2023-09-12T13:13:52.957Z,24.40
2023-09-12T13:16:20.280Z,24.20
2023-09-12T13:18:47.012Z,24.30
2023-09-12T13:21:13.685Z,24.50
2023-09-12T13:23:40.735Z,24.90
2023-09-12T13:26:09.641Z,25.10
2023-09-12T13:28:37.073Z,25.30
2023-09-12T13:31:04.667Z,25.60
2023-09-12T13:33:31.385Z,25.80
2023-09-12T13:35:58.087Z,25.80
2023-09-12T13:38:24.796Z,25.80
2023-09-12T13:40:51.509Z,25.80
2023-09-12T13:43:19.478Z,25.80
2023-09-12T13:45:46.212Z,25.80
2023-09-12T13:48:14.692Z,26.00
2023-09-12T13:50:41.401Z,26.10
2023-09-12T13:53:08.218Z,26.30
2023-09-12T13:55:49.711Z,25.80
2023-09-12T13:58:16.763Z,25.90
2023-09-12T14:00:43.428Z,25.90
2023-09-12T14:03:10.322Z,25.90
2023-09-12T14:05:37.700Z,26.00
2023-09-12T14:08:06.906Z,26.20
2023-09-12T14:10:37.530Z,26.30
2023-09-12T14:15:35.921Z,26.30
2023-09-12T14:18:03.014Z,26.30
2023-09-12T14:20:30.924Z,26.30
2023-09-12T14:22:59.246Z,26.20
2023-09-12T14:25:27.535Z,26.20
2023-09-12T14:27:54.789Z,26.10
2023-09-12T14:30:23.467Z,26.10
2023-09-12T14:32:50.564Z,26.10
2023-09-12T14:35:17.498Z,26.00
2023-09-12T14:37:44.457Z,25.80
2023-09-12T14:40:12.754Z,25.70
2023-09-12T14:42:39.545Z,25.50
2023-09-12T14:45:07.299Z,25.40
2023-09-12T14:47:34.190Z,25.50
2023-09-12T14:50:01.148Z,25.50
2023-09-12T14:52:30.428Z,25.50
2023-09-12T14:54:59.329Z,25.80
2023-09-12T14:57:31.639Z,26.00
2023-09-12T14:59:58.540Z,26.20
2023-09-12T15:02:32.757Z,26.10
2023-09-12T15:05:00.800Z,26.00
2023-09-12T15:07:30.531Z,25.80
2023-09-12T15:09:58.118Z,25.60
2023-09-12T15:12:24.896Z,25.50
2023-09-12T15:14:52.354Z,25.80
2023-09-12T15:17:19.874Z,26.20
2023-09-12T15:19:49.015Z,26.40
2023-09-12T15:22:15.642Z,26.60
2023-09-12T15:24:42.380Z,26.80
2023-09-12T15:27:09.184Z,26.90
2023-09-12T15:29:35.979Z,27.00
2023-09-12T15:32:02.699Z,27.10
2023-09-12T15:34:29.300Z,27.30
2023-09-12T15:37:22.266Z,26.80
2023-09-12T15:39:49.522Z,26.50
2023-09-12T15:42:31.492Z,26.60
2023-09-12T15:45:03.532Z,26.70
2023-09-12T15:47:31.092Z,26.90
2023-09-12T15:49:57.952Z,27.20
2023-09-12T15:52:24.661Z,27.20
2023-09-12T15:54:53.542Z,27.40
2023-09-12T15:57:20.757Z,27.40
2023-09-12T15:59:48.780Z,27.50
2023-09-12T16:02:17.180Z,27.50
2023-09-12T16:04:44.109Z,27.50
2023-09-12T16:07:10.902Z,27.50
2023-09-12T16:09:37.558Z,27.60
2023-09-12T16:12:04.816Z,27.60
2023-09-12T16:14:31.403Z,27.60
2023-09-12T16:16:58.039Z,27.60
2023-09-12T16:19:24.929Z,27.50
2023-09-12T16:21:51.579Z,27.40
2023-09-12T16:24:18.225Z,27.30
2023-09-12T16:26:44.898Z,27.30
2023-09-12T16:29:11.513Z,27.30
2023-09-12T16:31:38.297Z,27.30
2023-09-12T16:34:05.078Z,27.30
2023-09-12T16:36:33.105Z,27.30
2023-09-12T16:38:59.691Z,27.30
2023-09-12T16:41:26.321Z,27.40
2023-09-12T16:43:53.360Z,27.30
2023-09-12T16:46:20.178Z,27.30
2023-09-12T16:48:47.856Z,27.20
2023-09-12T16:51:14.512Z,27.20
2023-09-12T16:53:41.772Z,27.20
2023-09-12T16:56:08.673Z,27.20
2023-09-12T16:58:35.393Z,27.10
2023-09-12T17:01:03.171Z,27.10
2023-09-12T17:03:29.979Z,27.10
2023-09-12T17:05:56.832Z,27.00
2023-09-12T17:08:24.426Z,27.00
2023-09-12T17:10:51.107Z,26.90
2023-09-12T17:13:17.835Z,26.90
2023-09-12T17:15:44.643Z,26.80
2023-09-12T17:18:11.566Z,26.70
2023-09-12T17:20:38.193Z,26.70
2023-09-12T17:23:05.124Z,26.50
2023-09-12T17:25:32.603Z,26.50
2023-09-12T17:28:01.851Z,26.50
2023-09-12T17:30:28.603Z,26.40
2023-09-12T17:32:55.323Z,26.40
2023-09-12T17:35:22.298Z,26.30
2023-09-12T17:37:48.958Z,26.20
2023-09-12T17:40:15.738Z,26.10
2023-09-12T17:42:42.398Z,26.10
2023-09-12T17:45:10.871Z,26.10
2023-09-12T17:47:37.563Z,26.00
2023-09-12T17:50:04.794Z,26.10
2023-09-12T17:52:31.457Z,26.00
2023-09-12T17:54:58.127Z,25.90
2023-09-12T17:57:24.800Z,26.00
2023-09-12T17:59:52.513Z,25.90
2023-09-12T18:02:19.200Z,26.00
2023-09-12T18:04:45.901Z,26.00
2023-09-12T18:07:12.697Z,25.90
2023-09-12T18:09:39.841Z,26.00
2023-09-12T18:12:06.592Z,25.80
2023-09-12T18:14:33.219Z,25.80
2023-09-12T18:16:59.930Z,25.70
2023-09-12T18:19:26.819Z,25.80
2023-09-12T18:21:54.019Z,25.70
2023-09-12T18:24:20.810Z,25.60
2023-09-12T18:26:47.534Z,25.50
2023-09-12T18:29:16.618Z,25.40
2023-09-12T18:31:43.297Z,25.30
2023-09-12T18:34:11.209Z,25.30
2023-09-12T18:36:38.924Z,25.30
2023-09-12T18:39:07.992Z,25.20
2023-09-12T18:41:35.601Z,25.10
2023-09-12T18:44:03.052Z,25.10
2023-09-12T18:46:30.220Z,25.00
2023-09-12T18:48:57.132Z,25.10
2023-09-12T18:51:23.860Z,25.00
2023-09-12T18:53:50.625Z,25.00
2023-09-12T18:56:17.315Z,24.90
2023-09-12T18:58:44.476Z,24.80
2023-09-12T19:01:11.444Z,24.80
2023-09-12T19:03:40.457Z,24.70
2023-09-12T19:06:08.202Z,24.80
2023-09-12T19:08:38.049Z,24.70
2023-09-12T19:11:05.802Z,24.80
2023-09-12T19:13:32.554Z,24.70
2023-09-12T19:15:59.267Z,24.70
2023-09-12T19:18:27.325Z,24.60
2023-09-12T19:20:54.008Z,24.60
2023-09-12T19:23:20.691Z,24.50
2023-09-12T19:25:48.824Z,24.30
2023-09-12T19:28:18.163Z,24.10
2023-09-12T19:30:45.116Z,24.00
2023-09-12T19:33:11.873Z,23.90
2023-09-12T19:35:40.902Z,23.90
2023-09-12T19:38:07.639Z,23.70
2023-09-12T19:40:37.046Z,23.60
2023-09-12T19:43:04.303Z,23.50
2023-09-12T19:45:31.082Z,23.30
2023-09-12T19:48:01.599Z,23.40
2023-09-12T19:50:31.927Z,23.40
2023-09-12T19:52:58.588Z,23.40
2023-09-12T19:55:26.290Z,23.50
2023-09-12T19:57:53.537Z,23.40
2023-09-12T20:00:20.300Z,23.50
2023-09-12T20:02:47.447Z,23.50
2023-09-12T20:05:14.243Z,23.60
2023-09-12T20:07:40.953Z,23.60
2023-09-12T20:10:08.431Z,23.50
2023-09-12T20:12:35.187Z,23.20
2023-09-12T20:15:02.001Z,23.00
2023-09-12T20:17:28.758Z,23.00
2023-09-12T20:19:55.506Z,23.00
2023-09-12T20:22:22.133Z,23.10
2023-09-12T20:24:48.929Z,23.10
2023-09-12T20:27:15.517Z,23.10
2023-09-12T20:29:42.192Z,23.10
2023-09-12T20:32:08.820Z,22.90
2023-09-12T20:34:35.927Z,22.90
2023-09-12T20:37:04.098Z,22.80
2023-09-12T20:39:31.226Z,22.60
2023-09-12T20:41:59.615Z,22.50
2023-09-12T20:44:26.468Z,22.30
2023-09-12T20:46:53.728Z,22.10
2023-09-12T20:49:20.497Z,22.20
2023-09-12T20:51:48.141Z,22.20
2023-09-12T20:54:15.865Z,22.30
2023-09-12T20:56:44.541Z,22.30
2023-09-12T20:59:11.373Z,22.30
2023-09-12T21:01:38.284Z,22.30
2023-09-12T21:04:05.791Z,22.20
2023-09-12T21:06:33.229Z,22.30
2023-09-12T21:08:59.988Z,22.30
2023-09-12T21:11:26.782Z,22.30
2023-09-12T21:13:53.479Z,22.30
2023-09-12T21:16:20.359Z,22.30
2023-09-12T21:18:47.913Z,22.30
2023-09-12T21:21:14.601Z,22.30
2023-09-12T21:23:41.456Z,22.30
2023-09-12T21:26:08.351Z,22.10
2023-09-12T21:28:34.922Z,21.90
2023-09-12T21:31:01.533Z,21.80
2023-09-12T21:33:28.254Z,21.80
2023-09-12T21:35:54.934Z,21.80
2023-09-12T21:38:23.498Z,21.90
2023-09-12T21:40:50.243Z,21.90
2023-09-12T21:43:17.194Z,21.90
2023-09-12T21:45:43.931Z,21.90
2023-09-12T21:48:10.696Z,22.00
2023-09-12T21:50:37.598Z,22.00
2023-09-12T21:53:05.428Z,22.00
2023-09-12T21:55:35.491Z,22.00
2023-09-12T21:58:03.885Z,22.00
2023-09-12T22:00:32.209Z,21.90
2023-09-12T22:02:59.442Z,21.90
2023-09-12T22:05:26.608Z,21.90
2023-09-12T22:07:53.331Z,21.80
2023-09-12T22:10:20.764Z,21.60
2023-09-12T22:12:48.164Z,21.50
2023-09-12T22:15:17.052Z,21.40
2023-09-12T22:17:44.089Z,21.40
2023-09-12T22:20:16.921Z,21.40
2023-09-12T22:22:44.868Z,21.40
2023-09-12T22:25:12.079Z,21.40
2023-09-12T22:27:39.673Z,21.30
2023-09-12T22:30:08.084Z,21.10
2023-09-12T22:32:35.400Z,20.90
2023-09-12T22:35:02.030Z,20.90
2023-09-12T22:37:28.643Z,20.80
2023-09-12T22:39:55.347Z,20.80
2023-09-12T22:42:22.821Z,20.80
2023-09-12T22:44:49.787Z,20.80
2023-09-12T22:47:16.950Z,20.70
2023-09-12T22:49:43.686Z,20.50
2023-09-12T22:52:10.437Z,20.40
2023-09-12T22:54:37.272Z,20.40
2023-09-12T22:57:04.907Z,20.60
2023-09-12T22:59:31.593Z,20.70
2023-09-12T23:01:59.679Z,20.80
2023-09-12T23:04:27.183Z,20.90
2023-09-12T23:06:54.196Z,21.00
2023-09-12T23:09:21.018Z,21.10
2023-09-12T23:11:47.617Z,21.20
2023-09-12T23:14:14.461Z,21.20
2023-09-12T23:16:41.079Z,21.30
2023-09-12T23:19:08.191Z,21.30
2023-09-12T23:21:35.113Z,21.30
2023-09-12T23:24:01.999Z,21.30
2023-09-12T23:26:28.657Z,21.30
2023-09-12T23:28:55.478Z,21.30
2023-09-12T23:31:22.407Z,21.40
2023-09-12T23:33:49.196Z,21.20
2023-09-12T23:36:15.847Z,21.00
2023-09-12T23:38:42.485Z,20.90
2023-09-12T23:41:09.110Z,20.70
2023-09-12T23:43:35.757Z,20.60
2023-09-12T23:46:02.503Z,20.50
2023-09-12T23:48:29.166Z,20.60
2023-09-12T23:50:56.265Z,20.80
2023-09-12T23:53:22.951Z,20.80
2023-09-12T23:55:50.737Z,20.70
2023-09-12T23:58:17.589Z,20.60
